KINL

Falls International-Einarson Field Airport

International Falls, Minnesota, USA
METAR KINL 230055Z AUTO 31010KT 10SM FEW016 BKN028 OVC045 04/02 A3018 RMK AO2 SLP234 T00390017 VISNO RWY 31
Observed Flight Rules
Oct-23 @ 00:55 UTC (7 minutes ago) Marginal Visual Flight Rules
Wind Visibility Clouds
310° at 10 knots 10 miles
  • Few at 1,600' AGL
  • Broken at 2,800' AGL
  • Overcast at 4,500' AGL
Temperatures Readings
Current 4°C / 39°F
Dewpoint 2°C / 36°F
Humidity 87%
Altimeter 30.18" Hg
Pressure 1023.4 hPa
Elevation 360
METAR KINL 230055Z AUTO 31010KT 10SM FEW016 BKN028 OVC045 04/02 A3018 RMK AO2 SLP234 T00390017 VISNO RWY 31
Observed Flight Rules
Oct-23 @ 00:55 UTC
(7 minutes ago)
MVFR
Wind Visibility
310° at 10 knots 10 miles
Clouds
  • Few at 1,600' AGL
  • Broken at 2,800' AGL
  • Overcast at 4,500' AGL
Temperature Dewpoint
4°C / 39°F 2°C / 36°F
Humidity Altimeter Pressure
87% 30.18" Hg 1023.4 hPa